sensor_id;sensor_type;location;lat;lon;timestamp;pressure;altitude;pressure_sealevel;temperature;humidity
23446;BME280;11895;48.738;9.320;2023-06-10T00:01:58;98342.06;;;20.27;100.00
23446;BME280;11895;48.738;9.320;2023-06-10T00:04:27;98342.06;;;20.18;100.00
23446;BME280;11895;48.738;9.320;2023-06-10T00:06:54;98342.06;;;20.18;94.15
23446;BME280;11895;48.738;9.320;2023-06-10T00:09:26;98330.81;;;20.11;100.00
23446;BME280;11895;48.738;9.320;2023-06-10T00:11:56;98332.84;;;20.09;95.07
23446;BME280;11895;48.738;9.320;2023-06-10T00:14:27;98337.72;;;20.06;100.00
23446;BME280;11895;48.738;9.320;2023-06-10T00:16:54;98339.75;;;19.94;100.00
23446;BME280;11895;48.738;9.320;2023-06-10T00:19:22;98334.28;;;19.94;100.00
23446;BME280;11895;48.738;9.320;2023-06-10T00:21:58;98340.59;;;19.94;100.00
23446;BME280;11895;48.738;9.320;2023-06-10T00:24:26;98333.16;;;19.56;100.00
23446;BME280;11895;48.738;9.320;2023-06-10T00:27:20;98340.28;;;19.68;100.00
23446;BME280;11895;48.738;9.320;2023-06-10T00:30:49;98334.81;;;19.68;100.00
23446;BME280;11895;48.738;9.320;2023-06-10T00:33:25;98335.38;;;19.72;96.69
23446;BME280;11895;48.738;9.320;2023-06-10T00:36:24;98332.22;;;19.76;96.91
23446;BME280;11895;48.738;9.320;2023-06-10T00:39:53;98336.22;;;19.72;100.00
23446;BME280;11895;48.738;9.320;2023-06-10T00:42:20;98327.91;;;19.64;77.32
23446;BME280;11895;48.738;9.320;2023-06-10T00:44:57;98331.34;;;19.66;100.00
23446;BME280;11895;48.738;9.320;2023-06-10T00:47:25;98335.06;;;19.65;100.00
23446;BME280;11895;48.738;9.320;2023-06-10T00:49:54;98340.81;;;19.62;100.00
23446;BME280;11895;48.738;9.320;2023-06-10T00:52:43;98335.88;;;19.56;100.00
23446;BME280;11895;48.738;9.320;2023-06-10T00:56:15;98324.06;;;19.46;96.18
23446;BME280;11895;48.738;9.320;2023-06-10T00:59:36;98336.44;;;19.50;100.00
23446;BME280;11895;48.738;9.320;2023-06-10T01:02:06;98337.28;;;19.41;100.00
23446;BME280;11895;48.738;9.320;2023-06-10T01:04:36;98331.22;;;19.37;100.00
23446;BME280;11895;48.738;9.320;2023-06-10T01:13:09;98325.56;;;19.29;100.00
23446;BME280;11895;48.738;9.320;2023-06-10T01:15:39;98332.22;;;18.96;100.00
23446;BME280;11895;48.738;9.320;2023-06-10T01:18:10;98326.09;;;19.13;100.00
23446;BME280;11895;48.738;9.320;2023-06-10T01:20:44;98327.72;;;19.16;100.00
23446;BME280;11895;48.738;9.320;2023-06-10T01:23:49;98318.91;;;19.12;99.13
23446;BME280;11895;48.738;9.320;2023-06-10T01:26:29;98325.09;;;19.14;100.00
23446;BME280;11895;48.738;9.320;2023-06-10T01:29:18;98323.94;;;19.07;100.00
23446;BME280;11895;48.738;9.320;2023-06-10T01:32:06;98319.47;;;19.06;100.00
23446;BME280;11895;48.738;9.320;2023-06-10T01:34:43;98322.19;;;19.06;100.00
23446;BME280;11895;48.738;9.320;2023-06-10T01:37:19;98329.66;;;19.04;100.00
23446;BME280;11895;48.738;9.320;2023-06-10T01:40:02;98327.28;;;18.90;100.00
23446;BME280;11895;48.738;9.320;2023-06-10T01:42:35;98336.13;;;19.03;100.00
23446;BME280;11895;48.738;9.320;2023-06-10T01:45:06;98327.47;;;18.98;100.00
23446;BME280;11895;48.738;9.320;2023-06-10T01:47:34;98329.28;;;18.88;100.00
23446;BME280;11895;48.738;9.320;2023-06-10T01:50:02;98331.72;;;18.81;100.00
23446;BME280;11895;48.738;9.320;2023-06-10T01:52:30;98337.47;;;18.67;100.00
23446;BME280;11895;48.738;9.320;2023-06-10T01:55:02;98336.34;;;18.69;100.00
23446;BME280;11895;48.738;9.320;2023-06-10T01:57:29;98336.34;;;18.69;100.00
23446;BME280;11895;48.738;9.320;2023-06-10T02:00:00;98336.34;;;18.69;100.00
23446;BME280;11895;48.738;9.320;2023-06-10T02:02:27;98338.34;;;18.67;100.00
23446;BME280;11895;48.738;9.320;2023-06-10T02:04:56;98339.44;;;18.65;100.00
23446;BME280;11895;48.738;9.320;2023-06-10T02:07:24;98344.03;;;18.64;100.00
23446;BME280;11895;48.738;9.320;2023-06-10T02:09:51;98341.09;;;18.56;100.00
23446;BME280;11895;48.738;9.320;2023-06-10T02:12:21;98346.84;;;18.53;100.00
23446;BME280;11895;48.738;9.320;2023-06-10T02:14:48;98338.78;;;18.52;100.00
23446;BME280;11895;48.738;9.320;2023-06-10T02:17:25;98342.78;;;18.47;100.00
23446;BME280;11895;48.738;9.320;2023-06-10T02:19:55;98343.66;;;18.48;100.00
23446;BME280;11895;48.738;9.320;2023-06-10T02:22:23;98342.19;;;18.44;100.00
23446;BME280;11895;48.738;9.320;2023-06-10T02:24:58;98346.63;;;18.45;100.00
23446;BME280;11895;48.738;9.320;2023-06-10T02:27:26;98347.88;;;18.41;100.00
23446;BME280;11895;48.738;9.320;2023-06-10T02:29:55;98340.72;;;18.40;100.00
23446;BME280;11895;48.738;9.320;2023-06-10T02:32:25;98357.47;;;18.35;100.00
23446;BME280;11895;48.738;9.320;2023-06-10T02:34:57;98348.69;;;18.32;100.00
23446;BME280;11895;48.738;9.320;2023-06-10T02:38:12;98360.06;;;18.37;100.00
23446;BME280;11895;48.738;9.320;2023-06-10T02:41:28;98360.81;;;18.39;94.31
23446;BME280;11895;48.738;9.320;2023-06-10T02:44:41;98362.53;;;18.40;100.00
23446;BME280;11895;48.738;9.320;2023-06-10T02:47:16;98366.56;;;18.24;100.00
23446;BME280;11895;48.738;9.320;2023-06-10T02:49:46;98364.16;;;18.10;100.00
23446;BME280;11895;48.738;9.320;2023-06-10T02:52:17;98364.88;;;18.12;100.00
23446;BME280;11895;48.738;9.320;2023-06-10T02:54:45;98368.34;;;18.14;100.00
23446;BME280;11895;48.738;9.320;2023-06-10T02:57:14;98373.19;;;18.11;100.00
23446;BME280;11895;48.738;9.320;2023-06-10T02:59:43;98365.72;;;18.13;100.00
23446;BME280;11895;48.738;9.320;2023-06-10T03:02:13;98368.22;;;18.16;100.00
23446;BME280;11895;48.738;9.320;2023-06-10T03:04:48;98371.78;;;18.16;100.00
23446;BME280;11895;48.738;9.320;2023-06-10T03:07:18;98378.69;;;18.00;100.00
23446;BME280;11895;48.738;9.320;2023-06-10T03:09:50;98367.41;;;18.04;100.00
23446;BME280;11895;48.738;9.320;2023-06-10T03:12:20;98378.59;;;17.79;100.00
23446;BME280;11895;48.738;9.320;2023-06-10T03:14:48;98380.59;;;17.77;100.00
23446;BME280;11895;48.738;9.320;2023-06-10T03:17:16;98385.53;;;17.83;100.00
23446;BME280;11895;48.738;9.320;2023-06-10T03:19:46;98387.25;;;17.84;100.00
23446;BME280;11895;48.738;9.320;2023-06-10T03:22:24;98395.94;;;17.66;100.00
23446;BME280;11895;48.738;9.320;2023-06-10T03:25:51;98403.13;;;17.56;100.00
23446;BME280;11895;48.738;9.320;2023-06-10T03:28:53;98401.63;;;17.63;100.00
23446;BME280;11895;48.738;9.320;2023-06-10T03:31:23;98407.34;;;17.60;100.00
23446;BME280;11895;48.738;9.320;2023-06-10T03:33:53;98408.31;;;17.59;100.00
23446;BME280;11895;48.738;9.320;2023-06-10T03:36:22;98409.06;;;17.61;100.00
23446;BME280;11895;48.738;9.320;2023-06-10T03:38:49;98410.03;;;17.71;100.00
23446;BME280;11895;48.738;9.320;2023-06-10T03:41:20;98417.34;;;17.82;100.00
23446;BME280;11895;48.738;9.320;2023-06-10T03:43:49;98412.53;;;17.86;100.00
23446;BME280;11895;48.738;9.320;2023-06-10T03:46:18;98410.03;;;17.83;100.00
23446;BME280;11895;48.738;9.320;2023-06-10T03:48:46;98410.81;;;17.85;100.00
23446;BME280;11895;48.738;9.320;2023-06-10T03:51:17;98409.66;;;17.87;100.00
23446;BME280;11895;48.738;9.320;2023-06-10T03:54:36;98404.84;;;17.91;100.00
23446;BME280;11895;48.738;9.320;2023-06-10T03:57:43;98421.81;;;17.94;100.00
23446;BME280;11895;48.738;9.320;2023-06-10T04:00:56;98420.94;;;17.94;100.00
23446;BME280;11895;48.738;9.320;2023-06-10T04:03:43;98413.50;;;17.96;100.00
23446;BME280;11895;48.738;9.320;2023-06-10T04:06:57;98414.34;;;17.96;99.40
23446;BME280;11895;48.738;9.320;2023-06-10T04:10:24;98417.97;;;17.86;100.00
23446;BME280;11895;48.738;9.320;2023-06-10T04:13:43;98419.56;;;18.00;100.00
23446;BME280;11895;48.738;9.320;2023-06-10T04:16:12;98419.56;;;18.00;100.00
23446;BME280;11895;48.738;9.320;2023-06-10T04:18:45;98429.34;;;17.91;100.00
23446;BME280;11895;48.738;9.320;2023-06-10T04:21:15;98418.69;;;17.99;100.00
23446;BME280;11895;48.738;9.320;2023-06-10T04:24:24;98427.59;;;18.01;100.00
23446;BME280;11895;48.738;9.320;2023-06-10T04:27:01;98422.28;;;18.00;100.00
23446;BME280;11895;48.738;9.320;2023-06-10T04:29:30;98428.97;;;17.95;100.00
23446;BME280;11895;48.738;9.320;2023-06-10T04:31:58;98431.44;;;18.10;100.00
23446;BME280;11895;48.738;9.320;2023-06-10T04:34:27;98432.28;;;18.10;100.00
23446;BME280;11895;48.738;9.320;2023-06-10T04:36:58;98434.63;;;18.15;100.00
23446;BME280;11895;48.738;9.320;2023-06-10T04:39:26;98439.56;;;18.21;100.00
23446;BME280;11895;48.738;9.320;2023-06-10T04:41:55;98434.28;;;17.97;100.00
23446;BME280;11895;48.738;9.320;2023-06-10T04:44:25;98432.78;;;18.15;100.00
23446;BME280;11895;48.738;9.320;2023-06-10T04:46:54;98436.22;;;18.29;100.00
23446;BME280;11895;48.738;9.320;2023-06-10T04:49:24;98440.34;;;18.44;100.00
23446;BME280;11895;48.738;9.320;2023-06-10T04:51:51;98435.59;;;18.57;100.00
23446;BME280;11895;48.738;9.320;2023-06-10T04:54:21;98440.34;;;18.44;100.00
23446;BME280;11895;48.738;9.320;2023-06-10T04:57:05;98431.59;;;18.61;100.00
23446;BME280;11895;48.738;9.320;2023-06-10T05:03:53;98443.97;;;18.65;100.00
23446;BME280;11895;48.738;9.320;2023-06-10T05:07:07;98445.16;;;18.84;100.00
23446;BME280;11895;48.738;9.320;2023-06-10T05:10:36;98442.31;;;19.06;100.00
23446;BME280;11895;48.738;9.320;2023-06-10T05:13:03;98442.94;;;19.19;100.00
23446;BME280;11895;48.738;9.320;2023-06-10T05:15:30;98442.13;;;19.29;100.00
23446;BME280;11895;48.738;9.320;2023-06-10T05:17:58;98443.69;;;19.21;100.00
23446;BME280;11895;48.738;9.320;2023-06-10T05:20:26;98442.75;;;19.32;100.00
23446;BME280;11895;48.738;9.320;2023-06-10T05:22:55;98448.25;;;19.42;100.00
23446;BME280;11895;48.738;9.320;2023-06-10T05:25:22;98442.16;;;19.59;100.00
23446;BME280;11895;48.738;9.320;2023-06-10T05:27:52;98447.25;;;19.64;100.00
23446;BME280;11895;48.738;9.320;2023-06-10T05:30:20;98447.84;;;19.77;100.00
23446;BME280;11895;48.738;9.320;2023-06-10T05:32:52;98451.31;;;19.69;100.00
23446;BME280;11895;48.738;9.320;2023-06-10T05:35:24;98442.59;;;19.95;100.00
23446;BME280;11895;48.738;9.320;2023-06-10T05:37:52;98455.16;;;20.07;100.00
23446;BME280;11895;48.738;9.320;2023-06-10T05:40:22;98456.31;;;20.14;100.00
23446;BME280;11895;48.738;9.320;2023-06-10T05:42:50;98446.56;;;20.21;100.00
23446;BME280;11895;48.738;9.320;2023-06-10T05:45:26;98448.41;;;20.21;100.00
23446;BME280;11895;48.738;9.320;2023-06-10T05:48:02;98447.44;;;20.32;100.00
23446;BME280;11895;48.738;9.320;2023-06-10T05:51:24;98456.38;;;20.43;100.00
23446;BME280;11895;48.738;9.320;2023-06-10T05:54:56;98456.25;;;20.64;100.00
23446;BME280;11895;48.738;9.320;2023-06-10T05:57:26;98455.56;;;20.72;100.00
23446;BME280;11895;48.738;9.320;2023-06-10T05:59:53;98465.06;;;20.87;100.00
23446;BME280;11895;48.738;9.320;2023-06-10T06:02:21;98462.19;;;20.89;100.00
23446;BME280;11895;48.738;9.320;2023-06-10T06:04:49;98459.56;;;20.97;100.00
23446;BME280;11895;48.738;9.320;2023-06-10T06:07:17;98454.94;;;21.17;100.00
23446;BME280;11895;48.738;9.320;2023-06-10T06:09:48;98459.28;;;21.19;100.00
23446;BME280;11895;48.738;9.320;2023-06-10T06:12:17;98461.84;;;21.40;100.00
23446;BME280;11895;48.738;9.320;2023-06-10T06:14:45;98457.94;;;21.43;87.87
23446;BME280;11895;48.738;9.320;2023-06-10T06:17:15;98467.00;;;21.53;100.00
23446;BME280;11895;48.738;9.320;2023-06-10T06:19:45;98456.84;;;21.73;99.08
23446;BME280;11895;48.738;9.320;2023-06-10T06:22:14;98459.53;;;21.83;94.28
23446;BME280;11895;48.738;9.320;2023-06-10T06:24:54;98461.03;;;21.95;100.00
23446;BME280;11895;48.738;9.320;2023-06-10T06:27:22;98460.88;;;22.06;100.00
23446;BME280;11895;48.738;9.320;2023-06-10T06:29:53;98456.31;;;22.24;100.00
23446;BME280;11895;48.738;9.320;2023-06-10T06:32:24;98459.75;;;22.26;100.00
23446;BME280;11895;48.738;9.320;2023-06-10T06:34:54;98454.59;;;22.41;100.00
23446;BME280;11895;48.738;9.320;2023-06-10T06:37:23;98458.31;;;22.50;100.00
23446;BME280;11895;48.738;9.320;2023-06-10T06:40:04;98460.19;;;22.49;100.00
23446;BME280;11895;48.738;9.320;2023-06-10T06:42:35;98454.13;;;22.81;100.00
23446;BME280;11895;48.738;9.320;2023-06-10T06:45:14;98457.38;;;22.95;82.45
23446;BME280;11895;48.738;9.320;2023-06-10T06:47:46;98459.97;;;23.14;100.00
23446;BME280;11895;48.738;9.320;2023-06-10T06:50:14;98456.94;;;23.25;100.00
23446;BME280;11895;48.738;9.320;2023-06-10T06:52:44;98456.66;;;22.57;100.00
23446;BME280;11895;48.738;9.320;2023-06-10T06:55:12;98463.09;;;22.83;100.00
23446;BME280;11895;48.738;9.320;2023-06-10T06:58:21;98464.59;;;22.96;100.00
23446;BME280;11895;48.738;9.320;2023-06-10T07:02:29;98460.13;;;23.39;100.00
23446;BME280;11895;48.738;9.320;2023-06-10T07:05:48;98469.22;;;23.13;100.00
23446;BME280;11895;48.738;9.320;2023-06-10T07:09:17;98465.06;;;23.09;100.00
23446;BME280;11895;48.738;9.320;2023-06-10T07:12:36;98475.38;;;23.33;100.00
23446;BME280;11895;48.738;9.320;2023-06-10T07:15:10;98467.72;;;23.45;100.00
23446;BME280;11895;48.738;9.320;2023-06-10T07:17:40;98464.97;;;23.89;100.00
23446;BME280;11895;48.738;9.320;2023-06-10T07:20:10;98459.03;;;23.75;100.00
23446;BME280;11895;48.738;9.320;2023-06-10T07:22:41;98463.75;;;23.39;100.00
23446;BME280;11895;48.738;9.320;2023-06-10T07:25:08;98466.97;;;23.34;100.00
23446;BME280;11895;48.738;9.320;2023-06-10T07:27:43;98475.75;;;22.94;100.00
23446;BME280;11895;48.738;9.320;2023-06-10T07:30:10;98470.72;;;23.51;100.00
23446;BME280;11895;48.738;9.320;2023-06-10T07:32:40;98458.41;;;23.38;100.00
23446;BME280;11895;48.738;9.320;2023-06-10T07:35:11;98460.63;;;23.60;100.00
23446;BME280;11895;48.738;9.320;2023-06-10T07:37:39;98459.72;;;24.11;100.00
23446;BME280;11895;48.738;9.320;2023-06-10T07:40:07;98457.31;;;24.59;99.94
23446;BME280;11895;48.738;9.320;2023-06-10T07:42:37;98458.91;;;24.78;97.77
23446;BME280;11895;48.738;9.320;2023-06-10T07:45:05;98458.78;;;25.12;95.09
23446;BME280;11895;48.738;9.320;2023-06-10T07:47:34;98461.84;;;25.33;91.88
23446;BME280;11895;48.738;9.320;2023-06-10T07:50:04;98460.81;;;25.59;89.30
23446;BME280;11895;48.738;9.320;2023-06-10T07:52:32;98457.81;;;25.85;88.82
23446;BME280;11895;48.738;9.320;2023-06-10T07:56:12;98453.50;;;25.91;86.07
23446;BME280;11895;48.738;9.320;2023-06-10T07:59:52;98451.66;;;26.22;82.62
23446;BME280;11895;48.738;9.320;2023-06-10T08:03:55;98458.34;;;26.28;79.79
23446;BME280;11895;48.738;9.320;2023-06-10T08:17:24;98452.19;;;25.37;93.15
23446;BME280;11895;48.738;9.320;2023-06-10T08:20:46;98443.94;;;25.13;95.77
23446;BME280;11895;48.738;9.320;2023-06-10T08:25:09;98436.69;;;25.45;92.96
23446;BME280;11895;48.738;9.320;2023-06-10T08:28:56;98443.16;;;25.84;88.99
23446;BME280;11895;48.738;9.320;2023-06-10T08:32:48;98449.66;;;26.08;87.53
23446;BME280;11895;48.738;9.320;2023-06-10T08:36:39;98437.94;;;26.37;84.78
23446;BME280;11895;48.738;9.320;2023-06-10T08:45:34;98442.03;;;26.49;80.44
23446;BME280;11895;48.738;9.320;2023-06-10T08:49:17;98437.72;;;26.78;77.11
23446;BME280;11895;48.738;9.320;2023-06-10T08:53:42;98437.59;;;27.17;72.78
23446;BME280;11895;48.738;9.320;2023-06-10T08:58:04;98439.84;;;27.36;68.55
23446;BME280;11895;48.738;9.320;2023-06-10T09:02:10;98437.72;;;27.24;67.83
23446;BME280;11895;48.738;9.320;2023-06-10T09:05:56;98431.97;;;27.63;65.76
23446;BME280;11895;48.738;9.320;2023-06-10T09:09:06;98439.97;;;27.58;62.20
23446;BME280;11895;48.738;9.320;2023-06-10T09:11:34;98428.44;;;27.69;61.35
23446;BME280;11895;48.738;9.320;2023-06-10T09:14:01;98436.69;;;28.07;60.12
23446;BME280;11895;48.738;9.320;2023-06-10T09:16:29;98427.97;;;28.39;57.81
23446;BME280;11895;48.738;9.320;2023-06-10T09:18:56;98429.19;;;28.52;54.83
23446;BME280;11895;48.738;9.320;2023-06-10T09:21:25;98439.19;;;28.53;54.49
23446;BME280;11895;48.738;9.320;2023-06-10T09:23:52;98427.00;;;28.47;54.64
23446;BME280;11895;48.738;9.320;2023-06-10T09:26:29;98429.25;;;28.94;52.28
23446;BME280;11895;48.738;9.320;2023-06-10T09:29:07;98433.75;;;28.81;51.87
23446;BME280;11895;48.738;9.320;2023-06-10T09:31:47;98432.13;;;29.29;52.00
23446;BME280;11895;48.738;9.320;2023-06-10T09:34:15;98416.00;;;29.39;50.80
23446;BME280;11895;48.738;9.320;2023-06-10T09:36:50;98419.63;;;29.12;49.15
23446;BME280;11895;48.738;9.320;2023-06-10T09:39:38;98420.94;;;29.65;51.11
23446;BME280;11895;48.738;9.320;2023-06-10T09:42:45;98420.59;;;29.82;49.32
23446;BME280;11895;48.738;9.320;2023-06-10T09:47:03;98423.72;;;30.07;44.68
23446;BME280;11895;48.738;9.320;2023-06-10T09:49:50;98410.03;;;29.99;45.93
23446;BME280;11895;48.738;9.320;2023-06-10T09:52:25;98413.03;;;30.45;45.64
23446;BME280;11895;48.738;9.320;2023-06-10T09:55:00;98418.41;;;30.46;42.36
23446;BME280;11895;48.738;9.320;2023-06-10T09:57:34;98412.00;;;30.53;43.21
23446;BME280;11895;48.738;9.320;2023-06-10T10:00:11;98416.66;;;30.45;44.25
23446;BME280;11895;48.738;9.320;2023-06-10T10:02:49;98418.19;;;30.41;44.74
23446;BME280;11895;48.738;9.320;2023-06-10T10:05:19;98414.56;;;30.48;44.35
23446;BME280;11895;48.738;9.320;2023-06-10T10:07:49;98403.13;;;30.77;42.47
23446;BME280;11895;48.738;9.320;2023-06-10T10:10:19;98408.94;;;30.95;42.71
23446;BME280;11895;48.738;9.320;2023-06-10T10:12:51;98408.47;;;30.72;41.71
23446;BME280;11895;48.738;9.320;2023-06-10T10:15:29;98398.63;;;30.89;42.39
23446;BME280;11895;48.738;9.320;2023-06-10T10:18:09;98410.44;;;31.18;41.70
23446;BME280;11895;48.738;9.320;2023-06-10T10:20:47;98406.16;;;31.22;40.97
23446;BME280;11895;48.738;9.320;2023-06-10T10:23:24;98406.63;;;31.32;41.14
23446;BME280;11895;48.738;9.320;2023-06-10T10:26:00;98391.66;;;31.33;41.22
23446;BME280;11895;48.738;9.320;2023-06-10T10:28:49;98391.41;;;31.41;39.98
23446;BME280;11895;48.738;9.320;2023-06-10T10:31:21;98386.88;;;31.67;39.81
23446;BME280;11895;48.738;9.320;2023-06-10T10:33:58;98389.94;;;31.39;36.99
23446;BME280;11895;48.738;9.320;2023-06-10T10:36:27;98394.59;;;30.98;38.13
23446;BME280;11895;48.738;9.320;2023-06-10T10:38:56;98401.88;;;31.13;38.49
23446;BME280;11895;48.738;9.320;2023-06-10T10:41:25;98386.50;;;31.50;37.97
23446;BME280;11895;48.738;9.320;2023-06-10T10:43:53;98385.19;;;31.59;38.11
23446;BME280;11895;48.738;9.320;2023-06-10T10:46:21;98401.91;;;31.53;37.00
23446;BME280;11895;48.738;9.320;2023-06-10T10:48:54;98385.19;;;31.26;36.07
23446;BME280;11895;48.738;9.320;2023-06-10T10:51:23;98388.63;;;31.55;36.98
23446;BME280;11895;48.738;9.320;2023-06-10T10:54:13;98381.78;;;31.51;37.32
23446;BME280;11895;48.738;9.320;2023-06-10T11:05:14;98389.22;;;32.55;34.95
23446;BME280;11895;48.738;9.320;2023-06-10T11:07:54;98380.44;;;32.51;35.05
23446;BME280;11895;48.738;9.320;2023-06-10T11:10:36;98380.94;;;32.73;34.70
23446;BME280;11895;48.738;9.320;2023-06-10T11:13:15;98370.34;;;32.88;34.39
23446;BME280;11895;48.738;9.320;2023-06-10T11:15:48;98376.13;;;32.93;34.02
23446;BME280;11895;48.738;9.320;2023-06-10T11:21:04;98373.56;;;32.85;34.08
23446;BME280;11895;48.738;9.320;2023-06-10T11:23:42;98385.06;;;33.02;33.87
23446;BME280;11895;48.738;9.320;2023-06-10T11:26:15;98379.59;;;32.51;32.93
23446;BME280;11895;48.738;9.320;2023-06-10T11:31:24;98369.06;;;33.41;33.25
23446;BME280;11895;48.738;9.320;2023-06-10T11:34:23;98373.09;;;33.52;32.79
23446;BME280;11895;48.738;9.320;2023-06-10T11:36:53;98374.44;;;33.67;32.27
23446;BME280;11895;48.738;9.320;2023-06-10T11:39:21;98368.19;;;34.27;32.06
23446;BME280;11895;48.738;9.320;2023-06-10T11:41:51;98362.13;;;34.48;31.20
23446;BME280;11895;48.738;9.320;2023-06-10T11:44:19;98368.09;;;34.82;30.81
23446;BME280;11895;48.738;9.320;2023-06-10T11:46:48;98354.34;;;34.50;30.94
23446;BME280;11895;48.738;9.320;2023-06-10T11:49:17;98349.88;;;34.61;30.78
23446;BME280;11895;48.738;9.320;2023-06-10T11:51:44;98353.38;;;35.17;30.13
23446;BME280;11895;48.738;9.320;2023-06-10T11:54:17;98332.53;;;35.13;29.94
23446;BME280;11895;48.738;9.320;2023-06-10T11:56:46;98362.44;;;35.66;29.64
23446;BME280;11895;48.738;9.320;2023-06-10T11:59:14;98350.97;;;35.79;29.78
23446;BME280;11895;48.738;9.320;2023-06-10T12:01:44;98354.16;;;35.47;30.18
23446;BME280;11895;48.738;9.320;2023-06-10T12:04:15;98355.03;;;34.27;30.81
23446;BME280;11895;48.738;9.320;2023-06-10T12:06:52;98352.75;;;35.38;29.52
23446;BME280;11895;48.738;9.320;2023-06-10T12:09:29;98352.00;;;36.25;28.66
23446;BME280;11895;48.738;9.320;2023-06-10T12:12:04;98349.00;;;36.55;28.22
23446;BME280;11895;48.738;9.320;2023-06-10T12:14:56;98357.88;;;36.23;28.27
23446;BME280;11895;48.738;9.320;2023-06-10T12:20:06;98360.91;;;34.08;31.53
23446;BME280;11895;48.738;9.320;2023-06-10T12:22:39;98353.09;;;34.46;31.49
23446;BME280;11895;48.738;9.320;2023-06-10T12:25:11;98356.81;;;36.13;29.22
23446;BME280;11895;48.738;9.320;2023-06-10T12:27:49;98354.00;;;38.16;26.56
23446;BME280;11895;48.738;9.320;2023-06-10T12:30:24;98340.25;;;38.64;25.45
23446;BME280;11895;48.738;9.320;2023-06-10T12:32:54;98341.56;;;39.74;24.10
23446;BME280;11895;48.738;9.320;2023-06-10T12:35:25;98341.03;;;41.08;23.33
23446;BME280;11895;48.738;9.320;2023-06-10T12:37:57;98345.16;;;40.65;21.40
23446;BME280;11895;48.738;9.320;2023-06-10T12:40:31;98346.38;;;41.20;21.84
23446;BME280;11895;48.738;9.320;2023-06-10T12:42:59;98357.09;;;42.09;21.74
23446;BME280;11895;48.738;9.320;2023-06-10T12:45:34;98341.03;;;42.65;21.22
23446;BME280;11895;48.738;9.320;2023-06-10T12:48:23;98341.81;;;40.93;22.29
23446;BME280;11895;48.738;9.320;2023-06-10T12:50:57;98330.44;;;39.95;23.10
23446;BME280;11895;48.738;9.320;2023-06-10T12:53:25;98340.16;;;39.07;23.59
23446;BME280;11895;48.738;9.320;2023-06-10T12:55:56;98340.00;;;39.99;23.43
23446;BME280;11895;48.738;9.320;2023-06-10T12:58:24;98342.53;;;39.90;22.20
23446;BME280;11895;48.738;9.320;2023-06-10T13:00:51;98340.63;;;40.58;22.18
23446;BME280;11895;48.738;9.320;2023-06-10T13:03:22;98337.38;;;41.64;21.18
23446;BME280;11895;48.738;9.320;2023-06-10T13:05:50;98328.59;;;42.66;20.53
23446;BME280;11895;48.738;9.320;2023-06-10T13:08:17;98333.28;;;44.41;18.98
23446;BME280;11895;48.738;9.320;2023-06-10T13:10:44;98329.88;;;45.20;18.34
23446;BME280;11895;48.738;9.320;2023-06-10T13:13:11;98328.38;;;45.74;17.80
23446;BME280;11895;48.738;9.320;2023-06-10T13:15:41;98320.66;;;43.41;19.06
23446;BME280;11895;48.738;9.320;2023-06-10T13:18:10;98324.34;;;41.88;20.25
23446;BME280;11895;48.738;9.320;2023-06-10T13:20:39;98306.72;;;42.06;20.68
23446;BME280;11895;48.738;9.320;2023-06-10T13:23:06;98317.47;;;42.20;20.84
23446;BME280;11895;48.738;9.320;2023-06-10T13:25:33;98320.56;;;43.22;19.76
23446;BME280;11895;48.738;9.320;2023-06-10T13:28:01;98321.22;;;42.59;20.37
23446;BME280;11895;48.738;9.320;2023-06-10T13:30:29;98323.19;;;41.94;21.33
23446;BME280;11895;48.738;9.320;2023-06-10T13:32:57;98311.09;;;40.19;22.61
23446;BME280;11895;48.738;9.320;2023-06-10T13:35:24;98324.09;;;41.59;21.56
23446;BME280;11895;48.738;9.320;2023-06-10T13:37:51;98309.28;;;40.55;22.11
23446;BME280;11895;48.738;9.320;2023-06-10T13:40:18;98311.28;;;39.59;23.21
23446;BME280;11895;48.738;9.320;2023-06-10T13:42:46;98308.47;;;41.92;21.30
23446;BME280;11895;48.738;9.320;2023-06-10T13:45:17;98293.75;;;43.44;19.25
23446;BME280;11895;48.738;9.320;2023-06-10T13:47:45;98306.25;;;45.05;18.27
23446;BME280;11895;48.738;9.320;2023-06-10T13:50:12;98304.56;;;45.37;17.91
23446;BME280;11895;48.738;9.320;2023-06-10T13:52:40;98305.88;;;45.77;17.76
23446;BME280;11895;48.738;9.320;2023-06-10T13:55:08;98302.25;;;44.69;18.44
23446;BME280;11895;48.738;9.320;2023-06-10T13:57:36;98299.50;;;41.03;20.25
23446;BME280;11895;48.738;9.320;2023-06-10T14:00:04;98298.84;;;40.71;21.37
23446;BME280;11895;48.738;9.320;2023-06-10T14:02:32;98290.03;;;39.10;22.30
23446;BME280;11895;48.738;9.320;2023-06-10T14:04:59;98283.41;;;38.18;23.85
23446;BME280;11895;48.738;9.320;2023-06-10T14:07:27;98279.72;;;36.27;25.59
23446;BME280;11895;48.738;9.320;2023-06-10T14:09:55;98279.41;;;39.17;23.54
23446;BME280;11895;48.738;9.320;2023-06-10T14:12:23;98281.41;;;41.55;21.43
23446;BME280;11895;48.738;9.320;2023-06-10T14:14:50;98274.47;;;43.41;19.51
23446;BME280;11895;48.738;9.320;2023-06-10T14:17:17;98283.84;;;41.98;20.97
23446;BME280;11895;48.738;9.320;2023-06-10T14:19:44;98286.50;;;39.62;22.58
23446;BME280;11895;48.738;9.320;2023-06-10T14:22:12;98286.09;;;39.11;23.28
23446;BME280;11895;48.738;9.320;2023-06-10T14:24:39;98286.75;;;37.37;24.88
23446;BME280;11895;48.738;9.320;2023-06-10T14:27:06;98287.31;;;36.72;25.46
23446;BME280;11895;48.738;9.320;2023-06-10T14:29:33;98285.75;;;36.47;26.04
23446;BME280;11895;48.738;9.320;2023-06-10T14:32:02;98274.59;;;36.24;26.63
23446;BME280;11895;48.738;9.320;2023-06-10T14:34:34;98276.28;;;35.73;27.10
23446;BME280;11895;48.738;9.320;2023-06-10T14:37:01;98283.72;;;35.67;27.94
23446;BME280;11895;48.738;9.320;2023-06-10T14:39:31;98288.63;;;36.52;27.46
23446;BME280;11895;48.738;9.320;2023-06-10T14:41:58;98293.00;;;39.25;24.60
23446;BME280;11895;48.738;9.320;2023-06-10T14:44:26;98282.81;;;41.43;22.45